Time;durP1;ratioP1;P1;durP2;ratioP2;P2;SDS_P1;SDS_P2;PMS_P1;PMS_P2;Temp;Humidity;BMP_temperature;BMP_pressure;BME280_temperature;BME280_humidity;BME280_pressure;Samples;Min_cycle;Max_cycle;Signal;HPM_P1;HPM_P2
2022/09/20 00:01:24;;;;;;;28.60;26.10;;;;;;;8.69;100.00;97611.72;106053;1280;25428;-88
2022/09/20 00:03:55;;;;;;;27.80;25.40;;;;;;;8.67;100.00;97613.41;105988;1280;25244;-87
2022/09/20 00:06:30;;;;;;;28.90;26.40;;;;;;;8.65;100.00;97608.30;108511;1280;22547;-88
2022/09/20 00:09:00;;;;;;;28.30;26.00;;;;;;;8.53;100.00;97588.98;107964;1280;23973;-90
2022/09/20 00:11:30;;;;;;;26.60;24.30;;;;;;;8.63;100.00;97609.07;105967;1282;23399;-92
2022/09/20 00:14:00;;;;;;;27.00;24.60;;;;;;;8.66;100.00;97610.81;105942;1280;24754;-94
2022/09/20 00:16:33;;;;;;;26.90;24.60;;;;;;;8.68;100.00;97610.93;106273;1282;25357;-89
2022/09/20 00:19:02;;;;;;;26.80;24.60;;;;;;;8.67;100.00;97614.88;106168;1280;24283;-87
2022/09/20 00:21:33;;;;;;;25.30;23.10;;;;;;;8.68;100.00;97610.02;106275;1280;23944;-86
2022/09/20 00:24:01;;;;;;;24.80;22.80;;;;;;;8.63;100.00;97609.45;105743;1280;23359;-86
2022/09/20 00:26:29;;;;;;;24.30;22.10;;;;;;;8.65;100.00;97610.13;105930;1280;23988;-86
2022/09/20 00:28:58;;;;;;;23.00;20.80;;;;;;;8.67;100.00;97612.68;105696;1280;22554;-86
2022/09/20 00:31:26;;;;;;;22.90;21.00;;;;;;;8.66;100.00;97617.90;105836;1280;23027;-85
2022/09/20 00:36:42;;;;;;;25.30;23.20;;;;;;;8.66;100.00;97616.66;106001;1280;22650;-88
2022/09/20 00:39:12;;;;;;;22.10;20.20;;;;;;;8.64;100.00;97617.92;106153;1279;24429;-88
2022/09/20 00:41:41;;;;;;;23.20;21.10;;;;;;;8.62;100.00;97615.05;105995;1280;22727;-87
2022/09/20 00:44:46;;;;;;;22.20;20.20;;;;;;;8.63;100.00;97617.40;105715;1281;23268;-88
2022/09/20 00:47:28;;;;;;;;;;;;;;;8.61;100.00;97615.28;106238;1280;25440;-87
2022/09/20 00:50:05;;;;;;;22.10;20.10;;;;;;;8.60;100.00;97618.75;106173;1280;22643;-88
2022/09/20 00:52:35;;;;;;;21.70;19.70;;;;;;;8.61;100.00;97621.98;105922;1280;22530;-89
2022/09/20 00:55:07;;;;;;;21.30;19.50;;;;;;;8.63;100.00;97610.52;106186;1280;24282;-88
2022/09/20 00:57:37;;;;;;;24.00;21.60;;;;;;;8.68;100.00;97615.02;106238;1280;24263;-87
2022/09/20 01:00:08;;;;;;;23.40;21.40;;;;;;;8.66;100.00;97616.13;106367;1280;22740;-89
2022/09/20 01:02:51;;;;;;;21.40;19.50;;;;;;;8.65;100.00;97617.70;106229;1280;22575;-90
2022/09/20 01:05:20;;;;;;;19.80;18.10;;;;;;;8.65;100.00;97617.16;106849;1281;25445;-90
2022/09/20 01:07:49;;;;;;;19.30;17.40;;;;;;;8.67;100.00;97615.46;106426;1282;25397;-93
2022/09/20 01:10:17;;;;;;;19.20;17.40;;;;;;;8.67;100.00;97615.35;106436;1280;22563;-88
2022/09/20 01:12:48;;;;;;;20.80;18.70;;;;;;;8.69;100.00;97613.55;106596;1280;22561;-90
2022/09/20 01:15:17;;;;;;;18.30;16.60;;;;;;;8.72;100.00;97613.18;106516;1280;25456;-87
2022/09/20 01:17:48;;;;;;;20.50;18.80;;;;;;;8.72;100.00;97612.27;106078;1280;24334;-87
2022/09/20 01:20:28;;;;;;;20.70;19.00;;;;;;;8.73;100.00;97612.36;105885;1280;22715;-89
2022/09/20 01:23:06;;;;;;;19.30;17.40;;;;;;;8.73;100.00;97610.77;105938;1280;22715;-86
2022/09/20 01:26:11;;;;;;;19.50;17.80;;;;;;;8.72;100.00;97612.11;106273;1280;25494;-86
2022/09/20 01:28:43;;;;;;;17.40;15.40;;;;;;;8.73;100.00;97612.21;105882;1280;25765;-86
2022/09/20 01:31:24;;;;;;;16.30;14.90;;;;;;;8.73;100.00;97612.90;106182;1280;25382;-88
2022/09/20 01:34:02;;;;;;;16.60;15.10;;;;;;;8.72;100.00;97619.63;105858;1279;22696;-89
2022/09/20 01:36:43;;;;;;;16.60;14.70;;;;;;;8.73;100.00;97615.27;106142;1280;22563;-88
2022/09/20 01:39:35;;;;;;;17.90;16.20;;;;;;;8.74;100.00;97617.98;105861;1280;25370;-87
2022/09/20 01:42:13;;;;;;;17.30;15.60;;;;;;;8.73;100.00;97614.08;106074;1280;25458;-86
2022/09/20 01:45:02;;;;;;;16.10;14.70;;;;;;;8.74;100.00;97617.66;106064;1280;25411;-86
2022/09/20 01:47:40;;;;;;;16.30;14.60;;;;;;;8.72;100.00;97618.71;105792;1280;25456;-87
2022/09/20 01:50:29;;;;;;;16.90;15.40;;;;;;;8.73;100.00;97619.34;106142;1280;22533;-87
2022/09/20 01:53:10;;;;;;;18.10;16.50;;;;;;;8.74;100.00;97624.17;105859;1280;22564;-86
2022/09/20 01:55:56;;;;;;;17.80;16.20;;;;;;;8.71;100.00;97624.11;106040;1280;24354;-86
2022/09/20 01:59:09;;;;;;;18.70;17.20;;;;;;;8.71;100.00;97624.70;105978;1280;22697;-86
2022/09/20 02:02:08;;;;;;;17.10;15.60;;;;;;;8.71;100.00;97633.36;107425;1280;24099;-86
2022/09/20 02:04:44;;;;;;;;;;;;;;;8.72;100.00;97632.36;106276;1280;24434;-86
2022/09/20 02:07:22;;;;;;;18.30;16.90;;;;;;;8.72;100.00;97628.83;105896;1280;22712;-87
2022/09/20 02:09:56;;;;;;;17.00;15.50;;;;;;;8.70;100.00;97628.46;106284;1280;22776;-85
2022/09/20 02:12:23;;;;;;;17.10;15.40;;;;;;;8.68;100.00;97628.55;105846;1280;22563;-87
2022/09/20 02:15:17;;;;;;;16.90;15.30;;;;;;;8.67;100.00;97631.68;106058;1280;22617;-88
2022/09/20 02:18:04;;;;;;;15.90;14.40;;;;;;;8.67;100.00;97626.10;105936;1280;24304;-91
2022/09/20 02:20:55;;;;;;;16.30;14.90;;;;;;;8.69;100.00;97627.31;106196;1280;24250;-87
2022/09/20 02:23:42;;;;;;;15.80;14.50;;;;;;;8.67;100.00;97627.87;106019;1280;22711;-87
2022/09/20 02:26:45;;;;;;;14.70;13.40;;;;;;;8.70;100.00;97630.15;105870;1282;22714;-88
2022/09/20 02:29:24;;;;;;;16.80;15.30;;;;;;;8.67;100.00;97630.98;105053;1287;23315;-88
2022/09/20 02:32:11;;;;;;;16.20;14.80;;;;;;;8.63;100.00;97633.99;105224;1287;23339;-86
2022/09/20 02:34:54;;;;;;;15.50;14.00;;;;;;;8.65;100.00;97631.56;105054;1287;22670;-87
2022/09/20 02:37:44;;;;;;;14.30;13.00;;;;;;;8.64;100.00;97632.48;104853;1287;23403;-87
2022/09/20 02:40:39;;;;;;;15.50;13.80;;;;;;;8.62;100.00;97633.73;105043;1287;22749;-87
2022/09/20 02:43:32;;;;;;;13.90;12.60;;;;;;;8.61;100.00;97631.89;105273;1287;25492;-88
2022/09/20 02:46:05;;;;;;;14.70;13.40;;;;;;;8.60;100.00;97631.14;105611;1287;22731;-87
2022/09/20 02:48:43;;;;;;;14.30;13.00;;;;;;;8.62;100.00;97634.83;104835;1287;23030;-88
2022/09/20 02:51:33;;;;;;;16.00;14.70;;;;;;;8.60;100.00;97635.13;104832;1288;22769;-89
2022/09/20 02:54:24;;;;;;;14.50;13.10;;;;;;;8.60;100.00;97638.77;105004;1288;22770;-87
2022/09/20 02:57:22;;;;;;;14.50;13.20;;;;;;;8.60;100.00;97642.55;105460;1287;24313;-87
2022/09/20 03:00:01;;;;;;;13.80;12.70;;;;;;;8.60;100.00;97646.23;105177;1288;23425;-84
2022/09/20 03:03:01;;;;;;;13.50;12.30;;;;;;;8.60;100.00;97645.77;105276;1287;25307;-88
2022/09/20 03:05:50;;;;;;;13.20;12.00;;;;;;;8.62;100.00;97648.14;106161;1280;24351;-86
2022/09/20 03:08:53;;;;;;;15.10;13.60;;;;;;;8.62;100.00;97649.44;105750;1280;22537;-86
2022/09/20 03:11:36;;;;;;;14.50;13.10;;;;;;;8.63;100.00;97649.04;106146;1280;22601;-88
2022/09/20 03:14:44;;;;;;;14.70;13.30;;;;;;;8.63;100.00;97649.90;106358;1280;22528;-87
2022/09/20 03:17:32;;;;;;;13.90;12.70;;;;;;;8.62;100.00;97652.18;105998;1280;22557;-87
2022/09/20 03:20:10;;;;;;;15.80;14.30;;;;;;;8.60;100.00;97651.30;105988;1280;22666;-87
2022/09/20 03:22:53;;;;;;;13.50;12.30;;;;;;;8.58;100.00;97653.85;106080;1280;22559;-87
2022/09/20 03:25:41;;;;;;;12.60;11.50;;;;;;;8.59;100.00;97656.85;106185;1280;25352;-86
2022/09/20 03:28:32;;;;;;;13.30;12.00;;;;;;;8.57;100.00;97655.86;105902;1280;24095;-86
2022/09/20 03:31:19;;;;;;;19.80;11.50;;;;;;;8.56;100.00;97656.66;105775;1280;25532;-89
2022/09/20 03:34:19;;;;;;;13.60;11.80;;;;;;;8.56;100.00;97660.64;106138;1280;23605;-90
2022/09/20 03:37:21;;;;;;;14.50;13.10;;;;;;;8.56;100.00;97663.11;106034;1280;23371;-90
2022/09/20 03:40:23;;;;;;;12.70;11.50;;;;;;;8.55;100.00;97661.63;106080;1280;25360;-89
2022/09/20 03:42:52;;;;;;;12.00;10.90;;;;;;;8.52;100.00;97663.29;105754;1278;24295;-90
2022/09/20 03:45:36;;;;;;;12.20;11.10;;;;;;;8.52;100.00;97661.33;106199;1280;22676;-88
2022/09/20 03:48:18;;;;;;;12.70;11.10;;;;;;;8.55;100.00;97667.55;106302;1280;24131;-89
2022/09/20 03:50:45;;;;;;;13.30;11.90;;;;;;;8.55;100.00;97672.63;106278;1280;24282;-88
2022/09/20 03:53:39;;;;;;;15.30;12.80;;;;;;;8.56;100.00;97674.55;106150;1280;22827;-90
2022/09/20 03:56:51;;;;;;;14.90;13.50;;;;;;;8.55;100.00;97674.88;106303;1281;22689;-88
2022/09/20 03:59:28;;;;;;;15.00;13.80;;;;;;;8.52;100.00;97680.99;107179;1280;23206;-88
2022/09/20 04:02:35;;;;;;;15.50;14.10;;;;;;;8.54;100.00;97683.17;106537;1280;22716;-89
2022/09/20 04:05:18;;;;;;;15.90;14.50;;;;;;;8.54;100.00;97686.50;105803;1282;23236;-89
2022/09/20 04:08:05;;;;;;;16.30;15.00;;;;;;;8.57;100.00;97682.13;106247;1281;23940;-90
2022/09/20 04:11:07;;;;;;;25.20;20.90;;;;;;;8.60;100.00;97682.67;106101;1281;24990;-86
2022/09/20 04:13:49;;;;;;;21.70;20.00;;;;;;;8.58;100.00;97684.48;106039;1281;25656;-89
2022/09/20 04:16:31;;;;;;;19.00;17.40;;;;;;;8.56;100.00;97685.77;105854;1281;23236;-87
2022/09/20 04:19:22;;;;;;;32.80;29.40;;;;;;;8.57;100.00;97689.41;105788;1281;24244;-88
2022/09/20 04:21:54;;;;;;;19.70;17.80;;;;;;;8.59;100.00;97690.95;105598;1282;22538;-86
2022/09/20 04:24:39;;;;;;;20.70;18.80;;;;;;;8.61;100.00;97695.38;105750;1281;22586;-87
2022/09/20 04:27:19;;;;;;;19.50;17.80;;;;;;;8.62;100.00;97696.16;106043;1281;25374;-88
2022/09/20 04:29:54;;;;;;;18.50;17.00;;;;;;;8.63;100.00;97698.36;105793;1281;22611;-87
2022/09/20 04:32:43;;;;;;;18.10;16.40;;;;;;;8.61;100.00;97697.95;106220;1281;24371;-88
2022/09/20 04:38:11;;;;;;;16.80;15.30;;;;;;;8.59;100.00;97700.64;106119;1281;23394;-88
2022/09/20 04:41:27;;;;;;;15.30;13.90;;;;;;;8.60;100.00;97697.91;105901;1281;23409;-89
2022/09/20 04:44:21;;;;;;;17.00;15.40;;;;;;;8.60;100.00;97697.59;106417;1281;22539;-88
2022/09/20 04:47:10;;;;;;;15.80;13.70;;;;;;;8.57;100.00;97697.05;106036;1281;22575;-89
2022/09/20 04:50:21;;;;;;;14.50;13.20;;;;;;;8.55;100.00;97701.32;106322;1281;22564;-91
2022/09/20 04:53:16;;;;;;;16.90;12.80;;;;;;;8.57;100.00;97705.74;106019;1281;22635;-88
2022/09/20 04:55:54;;;;;;;13.20;12.10;;;;;;;8.56;100.00;97705.32;105898;1281;25314;-88
2022/09/20 04:58:38;;;;;;;15.70;14.00;;;;;;;8.57;100.00;97709.04;106354;1281;22564;-86
2022/09/20 05:01:18;;;;;;;15.50;14.00;;;;;;;8.58;100.00;97710.35;105937;1281;22537;-87
2022/09/20 05:04:17;;;;;;;16.20;14.80;;;;;;;8.59;100.00;97711.10;106421;1280;22559;-88
2022/09/20 05:07:34;;;;;;;16.00;14.50;;;;;;;8.58;100.00;97711.38;106215;1280;22592;-87
2022/09/20 05:10:20;;;;;;;17.40;15.80;;;;;;;8.56;100.00;97714.95;105465;1280;24112;-88
2022/09/20 05:13:20;;;;;;;17.10;15.50;;;;;;;8.56;100.00;97714.98;106054;1280;22544;-88
2022/09/20 05:16:07;;;;;;;15.40;13.80;;;;;;;8.55;100.00;97718.83;106013;1280;22687;-89
2022/09/20 05:19:13;;;;;;;15.10;13.70;;;;;;;8.56;100.00;97714.67;106129;1280;23140;-88
2022/09/20 05:22:05;;;;;;;16.60;14.90;;;;;;;8.57;100.00;97717.80;106015;1280;25326;-88
2022/09/20 05:24:59;;;;;;;17.40;15.90;;;;;;;8.56;100.00;97721.34;106178;1280;23940;-88
2022/09/20 05:27:36;;;;;;;16.40;14.80;;;;;;;8.55;100.00;97724.46;106394;1280;22569;-88
2022/09/20 05:30:23;;;;;;;20.00;17.90;;;;;;;8.58;100.00;97727.52;105939;1280;23150;-87
2022/09/20 05:33:11;;;;;;;20.90;18.70;;;;;;;8.58;100.00;97728.89;105803;1280;22824;-87
2022/09/20 05:36:11;;;;;;;16.60;15.20;;;;;;;8.56;100.00;97727.56;106123;1280;22554;-87
2022/09/20 05:38:41;;;;;;;17.80;16.00;;;;;;;8.53;100.00;97728.42;106334;1280;22602;-87
2022/09/20 05:41:31;;;;;;;16.50;15.00;;;;;;;8.56;100.00;97728.16;106527;1280;25283;-87
2022/09/20 05:44:14;;;;;;;17.50;16.00;;;;;;;8.57;100.00;97729.23;106174;1279;22541;-87
2022/09/20 05:47:22;;;;;;;17.20;15.80;;;;;;;8.55;100.00;97731.83;106265;1280;22590;-88
2022/09/20 05:50:12;;;;;;;14.90;13.40;;;;;;;8.54;100.00;97738.45;105937;1282;22566;-88
2022/09/20 05:53:07;;;;;;;16.60;14.30;;;;;;;8.53;100.00;97737.22;106848;1280;22566;-86
2022/09/20 05:55:46;;;;;;;16.10;14.80;;;;;;;8.55;100.00;97736.10;106795;1280;22901;-87
2022/09/20 05:58:27;;;;;;;20.10;18.30;;;;;;;8.57;100.00;97740.39;106522;1280;23843;-87
2022/09/20 06:01:06;;;;;;;19.30;17.60;;;;;;;8.61;100.00;97742.10;105992;1280;22738;-86
2022/09/20 06:03:55;;;;;;;19.50;17.80;;;;;;;8.67;100.00;97744.13;105977;1281;22560;-88
2022/09/20 06:06:49;;;;;;;18.10;16.30;;;;;;;8.64;100.00;97745.34;106279;1282;24310;-88
2022/09/20 06:09:44;;;;;;;16.60;14.50;;;;;;;8.63;100.00;97748.26;106716;1280;22797;-89
2022/09/20 06:12:21;;;;;;;15.90;14.40;;;;;;;8.65;100.00;97744.91;105869;1280;22551;-89
2022/09/20 06:15:11;;;;;;;14.40;13.10;;;;;;;8.64;100.00;97748.23;105912;1280;25368;-90
2022/09/20 06:18:01;;;;;;;16.00;14.50;;;;;;;8.66;100.00;97751.73;106084;1280;22702;-88
2022/09/20 06:20:53;;;;;;;17.10;15.50;;;;;;;8.68;100.00;97754.22;106046;1280;24321;-88
2022/09/20 06:23:22;;;;;;;18.20;16.60;;;;;;;8.69;100.00;97748.18;105891;1280;25233;-87
2022/09/20 06:25:56;;;;;;;20.00;17.90;;;;;;;8.76;100.00;97761.46;105925;1281;22589;-88
2022/09/20 06:28:45;;;;;;;17.50;16.00;;;;;;;8.77;100.00;97763.77;106262;1280;22717;-88
2022/09/20 06:31:14;;;;;;;17.50;15.80;;;;;;;8.79;100.00;97759.91;105695;1281;22670;-88
2022/09/20 06:34:12;;;;;;;17.40;15.90;;;;;;;8.83;100.00;97759.43;106391;1280;22549;-88
2022/09/20 06:42:43;;;;;;;16.90;15.50;;;;;;;8.99;100.00;97772.25;106053;1280;22577;-85
2022/09/20 06:45:11;;;;;;;16.80;15.30;;;;;;;8.95;100.00;97773.55;106209;1280;22717;-85
2022/09/20 06:47:39;;;;;;;15.50;14.10;;;;;;;8.94;100.00;97775.17;106168;1280;22697;-87
2022/09/20 06:50:15;;;;;;;16.60;15.20;;;;;;;8.94;100.00;97778.30;106217;1280;22532;-87
2022/09/20 06:52:44;;;;;;;15.90;14.40;;;;;;;8.94;100.00;97779.27;106076;1279;22675;-86
2022/09/20 06:55:20;;;;;;;14.20;12.80;;;;;;;8.94;100.00;97783.30;105860;1281;22652;-87
2022/09/20 06:57:53;;;;;;;12.60;11.40;;;;;;;8.94;100.00;97784.64;106131;1280;25420;-87
2022/09/20 07:00:21;;;;;;;12.80;11.60;;;;;;;8.94;100.00;97786.15;106482;1280;25412;-87
2022/09/20 07:02:49;;;;;;;14.80;13.50;;;;;;;8.90;100.00;97788.04;106166;1279;22543;-88
2022/09/20 07:05:20;;;;;;;14.10;12.60;;;;;;;8.86;100.00;97792.87;106058;1280;24292;-87
2022/09/20 07:07:49;;;;;;;15.90;14.40;;;;;;;8.85;100.00;97793.14;106084;1280;23230;-89
2022/09/20 07:10:17;;;;;;;16.10;14.50;;;;;;;8.85;100.00;97793.69;105999;1280;24304;-89
2022/09/20 07:12:45;;;;;;;12.70;11.50;;;;;;;8.87;100.00;97796.02;106196;1280;22808;-88
2022/09/20 07:15:13;;;;;;;11.80;10.60;;;;;;;8.87;100.00;97800.38;105754;1282;24111;-88
2022/09/20 07:17:44;;;;;;;9.80;8.80;;;;;;;8.86;100.00;97802.74;106405;1280;25474;-86
2022/09/20 07:20:12;;;;;;;8.80;7.80;;;;;;;8.88;100.00;97809.27;106239;1280;22785;-90
2022/09/20 07:22:43;;;;;;;10.00;7.50;;;;;;;8.94;100.00;97810.27;106400;1280;25348;-90
2022/09/20 07:25:11;;;;;;;7.50;6.80;;;;;;;9.00;100.00;97813.64;106490;1280;22503;-87
2022/09/20 07:27:39;;;;;;;7.20;6.50;;;;;;;9.06;100.00;97815.43;106573;1280;25642;-90
2022/09/20 07:30:09;;;;;;;7.60;6.90;;;;;;;9.09;100.00;97820.65;106246;1280;22637;-89
2022/09/20 07:32:37;;;;;;;9.20;7.20;;;;;;;9.12;100.00;97824.91;106440;1280;25357;-89
2022/09/20 07:35:12;;;;;;;10.40;7.80;;;;;;;9.13;100.00;97825.61;106655;1280;23314;-88
2022/09/20 07:37:40;;;;;;;8.40;6.30;;;;;;;9.16;100.00;97826.95;105780;1283;25287;-89
2022/09/20 07:40:10;;;;;;;6.30;5.60;;;;;;;9.23;100.00;97824.92;106651;1280;22804;-88
2022/09/20 07:42:38;;;;;;;6.40;5.70;;;;;;;9.30;100.00;97824.21;106634;1280;22579;-91
2022/09/20 07:45:06;;;;;;;9.60;6.50;;;;;;;9.36;100.00;97825.37;106733;1280;22589;-88
2022/09/20 07:47:34;;;;;;;6.70;5.70;;;;;;;9.45;100.00;97827.27;107667;1280;22703;-88
2022/09/20 07:50:03;;;;;;;6.70;5.90;;;;;;;9.57;100.00;97830.80;107145;1280;23391;-88
2022/09/20 07:52:31;;;;;;;7.40;5.70;;;;;;;9.65;100.00;97832.77;106691;1280;22535;-87
2022/09/20 07:54:58;;;;;;;11.10;6.40;;;;;;;9.70;100.00;97834.94;106538;1280;22552;-88
2022/09/20 07:57:26;;;;;;;6.40;5.80;;;;;;;9.76;100.00;97829.58;106318;1280;23939;-87
2022/09/20 07:59:54;;;;;;;6.60;5.90;;;;;;;9.89;100.00;97834.21;106866;1280;23013;-86
2022/09/20 08:02:22;;;;;;;6.20;5.20;;;;;;;9.96;99.79;97832.69;106501;1280;22542;-87
2022/09/20 08:04:50;;;;;;;6.70;5.60;;;;;;;10.00;99.87;97833.21;106482;1280;25433;-88
2022/09/20 08:07:18;;;;;;;8.00;6.40;;;;;;;10.02;99.34;97838.60;106133;1280;22799;-91
2022/09/20 08:09:46;;;;;;;7.00;6.30;;;;;;;10.04;99.89;97841.16;106360;1280;22583;-90
2022/09/20 08:12:14;;;;;;;9.50;7.00;;;;;;;10.08;98.86;97843.36;106608;1280;22556;-87
2022/09/20 08:15:02;;;;;;;8.50;7.60;;;;;;;10.05;98.72;97848.64;106364;1280;24208;-89
2022/09/20 08:17:31;;;;;;;9.90;8.90;;;;;;;10.03;99.47;97842.80;105840;1280;22551;-88
2022/09/20 08:19:59;;;;;;;11.30;8.80;;;;;;;10.05;98.85;97844.27;106233;1280;26756;-89
2022/09/20 08:22:27;;;;;;;9.00;8.20;;;;;;;10.01;98.89;97844.88;106154;1280;23490;-89
2022/09/20 08:24:55;;;;;;;20.00;8.40;;;;;;;9.99;98.57;97848.08;106393;1280;25496;-89
2022/09/20 08:27:23;;;;;;;9.60;8.60;;;;;;;9.99;98.85;97844.31;106419;1280;24413;-91
2022/09/20 08:29:55;;;;;;;9.60;7.50;;;;;;;9.96;97.90;97849.91;106250;1280;22732;-87
2022/09/20 08:32:22;;;;;;;9.30;8.00;;;;;;;9.91;98.30;97855.05;106158;1280;22595;-89
2022/09/20 08:34:50;;;;;;;9.40;7.90;;;;;;;9.89;98.72;97857.08;106280;1280;24103;-87
2022/09/20 08:37:18;;;;;;;8.30;6.60;;;;;;;9.92;98.45;97858.92;106478;1280;25950;-90
2022/09/20 08:39:47;;;;;;;8.00;6.70;;;;;;;9.91;98.06;97855.87;106156;1280;22521;-89
2022/09/20 08:42:32;;;;;;;9.50;6.70;;;;;;;9.93;97.95;97858.20;106397;1280;22559;-87
2022/09/20 08:45:15;;;;;;;7.50;6.80;;;;;;;9.92;97.80;97863.88;106044;1283;25536;-86
2022/09/20 08:48:05;;;;;;;8.30;7.40;;;;;;;9.91;97.61;97862.33;106002;1280;25299;-87
2022/09/20 08:50:33;;;;;;;6.60;5.90;;;;;;;9.91;96.89;97861.52;106139;1280;22667;-86
2022/09/20 08:53:05;;;;;;;8.10;6.50;;;;;;;9.93;96.85;97863.14;106154;1280;23098;-87
2022/09/20 08:55:34;;;;;;;7.30;6.00;;;;;;;9.96;97.42;97864.60;106276;1280;23637;-86
2022/09/20 08:58:04;;;;;;;7.00;6.20;;;;;;;9.99;96.80;97864.17;106083;1280;26505;-86
2022/09/20 09:00:38;;;;;;;8.20;6.80;;;;;;;9.95;96.16;97871.34;105871;1283;22662;-86
2022/09/20 09:03:11;;;;;;;7.20;6.50;;;;;;;9.91;96.90;97870.66;106039;1280;22636;-85
2022/09/20 09:05:47;;;;;;;7.40;6.70;;;;;;;9.97;96.88;97866.27;105945;1282;22553;-87
2022/09/20 09:08:32;;;;;;;7.40;6.70;;;;;;;10.06;96.88;97867.56;106274;1280;22532;-88
2022/09/20 09:11:22;;;;;;;9.00;7.90;;;;;;;10.18;96.62;97864.34;106249;1280;23517;-87
2022/09/20 09:14:46;;;;;;;9.50;7.30;;;;;;;10.26;96.33;97860.27;106320;1280;24112;-85
2022/09/20 09:16:57;;;;;;;8.80;7.20;;;;;;;10.31;96.60;97865.05;106054;1281;22564;-87
2022/09/20 09:19:43;;;;;;;9.00;7.80;;;;;;;10.30;96.10;97859.89;106124;1280;22537;-86
2022/09/20 09:22:18;;;;;;;9.60;8.60;;;;;;;10.24;95.63;97862.88;106082;1280;22666;-87
2022/09/20 09:25:19;;;;;;;12.70;8.80;;;;;;;10.12;96.02;97863.52;106423;1280;23496;-86
2022/09/20 09:28:02;;;;;;;8.80;7.90;;;;;;;10.07;96.52;97864.70;106212;1280;22597;-87
2022/09/20 09:30:37;;;;;;;9.40;8.50;;;;;;;10.09;96.84;97866.27;106164;1283;22541;-85
2022/09/20 09:33:24;;;;;;;9.90;8.80;;;;;;;10.12;97.00;97867.41;106323;1280;22859;-87
2022/09/20 09:36:13;;;;;;;10.90;9.80;;;;;;;10.10;97.05;97871.30;105998;1280;25184;-87
2022/09/20 09:38:44;;;;;;;10.50;9.50;;;;;;;10.09;96.85;97870.04;106120;1280;24310;-85
2022/09/20 09:41:28;;;;;;;10.00;9.00;;;;;;;10.08;96.61;97871.84;107220;1280;22702;-87
2022/09/20 09:44:03;;;;;;;11.10;9.90;;;;;;;10.06;96.80;97869.45;106676;1280;22716;-87
2022/09/20 09:46:33;;;;;;;12.40;10.70;;;;;;;10.14;96.90;97868.48;105631;1283;22682;-87
2022/09/20 09:49:06;;;;;;;12.20;11.00;;;;;;;10.24;96.56;97869.13;105811;1280;24297;-86
2022/09/20 09:51:42;;;;;;;10.30;9.40;;;;;;;10.31;96.09;97873.57;106392;1280;23305;-88
2022/09/20 09:54:17;;;;;;;11.10;8.70;;;;;;;10.31;96.45;97873.28;106094;1281;22771;-88
2022/09/20 09:57:14;;;;;;;10.50;8.30;;;;;;;10.39;96.46;97867.14;105802;1282;22623;-86
2022/09/20 10:00:16;;;;;;;8.10;7.30;;;;;;;10.51;96.00;97869.25;106274;1280;22545;-88
2022/09/20 10:03:03;;;;;;;10.70;9.50;;;;;;;10.51;94.99;97868.23;106123;1280;22681;-86
2022/09/20 10:05:42;;;;;;;9.80;8.80;;;;;;;10.60;94.32;97865.52;106525;1280;25301;-87
2022/09/20 10:09:04;;;;;;;8.70;7.70;;;;;;;10.68;93.35;97865.63;106162;1280;24152;-87
2022/09/20 10:11:48;;;;;;;7.90;7.10;;;;;;;10.93;94.16;97857.64;105803;1280;23970;-88
2022/09/20 10:14:35;;;;;;;;;;;;;;;11.22;92.75;97858.36;106063;1280;24234;-89
2022/09/20 10:17:28;;;;;;;8.90;7.90;;;;;;;11.38;92.62;97854.54;106599;1280;22569;-88
2022/09/20 10:20:29;;;;;;;6.90;5.90;;;;;;;11.62;91.36;97852.27;106366;1280;25250;-90
2022/09/20 10:23:10;;;;;;;6.60;5.90;;;;;;;11.49;89.23;97856.79;106337;1280;25447;-87
2022/09/20 10:25:57;;;;;;;6.80;6.00;;;;;;;11.28;87.15;97859.21;106263;1280;23361;-87
2022/09/20 10:28:31;;;;;;;6.50;5.40;;;;;;;11.12;88.31;97860.15;106224;1280;22727;-88
2022/09/20 10:31:08;;;;;;;5.90;5.30;;;;;;;11.05;88.15;97859.81;106290;1280;25414;-87
2022/09/20 10:34:02;;;;;;;6.50;5.90;;;;;;;11.01;88.49;97860.27;106151;1281;23251;-86
2022/09/20 10:36:50;;;;;;;10.30;5.30;;;;;;;11.18;88.42;97857.81;106179;1280;23044;-84
2022/09/20 10:39:28;;;;;;;6.20;4.70;;;;;;;11.28;88.28;97856.29;105908;1281;22714;-88
2022/09/20 10:45:26;;;;;;;5.40;4.80;;;;;;;11.02;88.10;97862.20;106342;1280;22651;-83
2022/09/20 10:48:37;;;;;;;7.30;5.90;;;;;;;10.83;88.48;97861.44;105944;1283;22580;-85
2022/09/20 10:51:24;;;;;;;5.90;5.30;;;;;;;10.82;89.44;97868.00;106000;1281;23421;-88
2022/09/20 10:54:11;;;;;;;7.00;5.90;;;;;;;10.95;89.88;97862.66;106312;1281;22597;-89
2022/09/20 10:56:45;;;;;;;6.80;6.10;;;;;;;11.19;89.44;97859.46;106191;1281;25294;-88
2022/09/20 10:59:15;;;;;;;7.20;6.30;;;;;;;11.36;89.37;97862.05;106084;1280;22597;-89
2022/09/20 11:02:02;;;;;;;10.40;7.20;;;;;;;11.53;88.82;97859.38;106106;1281;22718;-89
2022/09/20 11:04:40;;;;;;;7.40;6.50;;;;;;;11.52;88.07;97866.52;105457;1281;22535;-86
2022/09/20 11:07:53;;;;;;;9.80;5.90;;;;;;;11.51;88.65;97860.98;105940;1281;23577;-85
2022/09/20 11:10:58;;;;;;;6.60;4.90;;;;;;;11.46;87.99;97860.19;105152;1289;22764;-83
2022/09/20 11:13:50;;;;;;;6.30;5.50;;;;;;;11.39;86.90;97861.66;105411;1288;24394;-88
2022/09/20 11:16:48;;;;;;;6.10;5.00;;;;;;;11.48;87.33;97858.27;106020;1288;22588;-88
2022/09/20 11:19:34;;;;;;;4.70;4.00;;;;;;;11.77;87.86;97851.39;105403;1289;22569;-88
2022/09/20 11:22:17;;;;;;;5.30;3.90;;;;;;;12.10;87.64;97852.46;105066;1288;22565;-91
2022/09/20 11:24:59;;;;;;;4.40;3.70;;;;;;;12.32;84.14;97850.06;105370;1288;22622;-90
2022/09/20 11:27:32;;;;;;;5.50;3.60;;;;;;;12.25;81.95;97853.81;105250;1289;22612;-89
2022/09/20 11:30:06;;;;;;;4.10;3.40;;;;;;;12.13;81.76;97855.54;105387;1288;22496;-88
2022/09/20 11:32:46;;;;;;;5.90;3.60;;;;;;;12.01;82.32;97853.61;105563;1288;22613;-86
2022/09/20 11:35:44;;;;;;;3.70;3.10;;;;;;;11.97;82.12;97851.19;107624;1288;22703;-89
2022/09/20 11:38:36;;;;;;;4.80;3.10;;;;;;;12.14;83.13;97849.83;105930;1288;22732;-88
2022/09/20 11:41:19;;;;;;;4.70;3.00;;;;;;;12.60;81.99;97844.45;105191;1289;22641;-89
2022/09/20 11:43:49;;;;;;;7.70;6.10;;;;;;;12.97;81.01;97841.20;105381;1290;22702;-90
2022/09/20 11:46:28;;;;;;;5.70;3.50;;;;;;;13.29;79.06;97840.70;105309;1289;24389;-88
2022/09/20 11:49:04;;;;;;;3.20;2.70;;;;;;;13.46;76.89;97844.31;106464;1283;22758;-89
2022/09/20 11:51:31;;;;;;;4.60;2.80;;;;;;;13.63;75.73;97846.70;106300;1281;25203;-88
2022/09/20 11:54:14;;;;;;;6.00;4.10;;;;;;;13.60;74.13;97850.96;106092;1280;22608;-90
2022/09/20 11:56:50;;;;;;;5.50;2.80;;;;;;;13.27;73.93;97858.67;106473;1280;25365;-91
2022/09/20 11:59:23;;;;;;;3.80;3.00;;;;;;;12.89;73.30;97863.23;106693;1280;23942;-90
2022/09/20 12:01:55;;;;;;;4.10;3.30;;;;;;;12.61;74.12;97862.81;106176;1281;22679;-89
2022/09/20 12:04:28;;;;;;;6.00;3.50;;;;;;;12.38;75.42;97867.41;106011;1281;22558;-91
2022/09/20 12:07:06;;;;;;;3.70;2.70;;;;;;;12.27;77.55;97870.08;106437;1281;25369;-90
2022/09/20 12:09:45;;;;;;;8.60;3.20;;;;;;;12.19;78.64;97869.14;106588;1281;25364;-92
2022/09/20 12:12:40;;;;;;;3.80;2.70;;;;;;;12.01;79.51;97867.17;106377;1281;22693;-89
2022/09/20 12:15:20;;;;;;;5.70;4.10;;;;;;;12.06;80.29;97868.51;106426;1280;25644;-87
2022/09/20 12:17:51;;;;;;;5.00;3.40;;;;;;;12.29;79.32;97866.13;106093;1280;22709;-90
2022/09/20 12:20:31;;;;;;;4.30;2.80;;;;;;;12.57;80.27;97858.91;106270;1280;22732;-87
2022/09/20 12:23:37;;;;;;;3.10;2.50;;;;;;;12.90;79.06;97860.29;106712;1280;22743;-89
2022/09/20 12:26:30;;;;;;;2.40;2.10;;;;;;;12.91;77.07;97862.65;106402;1280;25357;-90
2022/09/20 12:29:03;;;;;;;3.60;2.50;;;;;;;12.83;76.09;97863.05;106346;1280;22566;-91
2022/09/20 12:31:46;;;;;;;4.60;3.10;;;;;;;12.98;77.30;97857.25;106254;1280;22792;-88
2022/09/20 12:34:14;;;;;;;2.50;2.20;;;;;;;13.30;75.61;97857.27;106466;1280;25653;-85
2022/09/20 12:36:54;;;;;;;3.60;2.40;;;;;;;13.42;73.67;97855.42;106418;1280;23449;-88